Time,TemperatureF,DewpointF,PressureIn,WindDirection,WindDirectionDegrees,WindSpeedMPH,WindSpeedGustMPH,Humidity,HourlyPrecipIn,Conditions,Clouds,dailyrainin,SoftwareType,DateUTC
2013-01-11 00:00:00,27.9,27.4,30.17,NE,45,0.0,0.0,98,0.00,FEW,,0.01,WeatherDisplay:10.37,2013-01-11 08:00:00,
2013-01-11 00:05:00,27.9,27.4,30.17,NNE,22,1.1,1.1,98,0.00,RA,FEW,0.00,WeatherDisplay:10.37,2013-01-11 08:05:00,
2013-01-11 00:10:00,27.7,27.2,30.17,East,90,0.0,0.0,98,0.00,RA,FEW,0.00,WeatherDisplay:10.37,2013-01-11 08:10:00,
2013-01-11 00:15:00,27.7,27.2,30.18,NE,45,0.0,0.0,98,0.00,FEW,,0.00,WeatherDisplay:10.37,2013-01-11 08:15:00,
2013-01-11 00:20:00,27.7,27.2,30.18,East,90,0.0,0.0,98,0.00,FEW,,0.00,WeatherDisplay:10.37,2013-01-11 08:20:00,
2013-01-11 00:25:00,27.5,27.0,30.18,East,90,0.0,0.0,98,0.00,FEW,,0.00,WeatherDisplay:10.37,2013-01-11 08:25:00,
2013-01-11 00:30:00,27.5,27.0,30.18,ENE,68,0.0,0.0,98,0.00,FEW,,0.00,WeatherDisplay:10.37,2013-01-11 08:30:00,
2013-01-11 00:35:00,27.3,26.8,30.18,NE,45,0.0,0.0,98,0.00,FEW,,0.00,WeatherDisplay:10.37,2013-01-11 08:35:00,
2013-01-11 00:40:00,27.3,26.8,30.18,NNE,22,0.0,0.0,98,0.00,FEW,,0.00,WeatherDisplay:10.37,2013-01-11 08:40:00,
2013-01-11 00:45:00,27.1,26.6,30.18,NNE,22,0.0,0.0,98,0.00,FEW,,0.00,WeatherDisplay:10.37,2013-01-11 08:45:00,
2013-01-11 00:50:00,27.1,26.6,30.19,NNE,22,0.0,0.0,98,0.00,FEW,,0.00,WeatherDisplay:10.37,2013-01-11 08:50:00,
2013-01-11 00:55:00,27.0,26.5,30.19,NNE,22,0.0,0.0,98,0.00,FEW,,0.00,WeatherDisplay:10.37,2013-01-11 08:55:00,
2013-01-11 01:00:00,27.0,26.5,30.19,NNE,22,0.0,0.0,98,0.00,FEW,,0.00,WeatherDisplay:10.37,2013-01-11 09:00:00,
2013-01-11 01:05:00,27.0,26.5,30.20,East,90,0.0,0.0,98,0.00,FEW,,0.00,WeatherDisplay:10.37,2013-01-11 09:05:00,
2013-01-11 01:10:00,26.8,26.3,30.20,East,90,0.0,0.0,98,0.00,FEW,,0.00,WeatherDisplay:10.37,2013-01-11 09:10:00,
2013-01-11 01:15:00,26.6,26.1,30.20,ENE,68,0.0,0.0,98,0.00,FEW,,0.00,WeatherDisplay:10.37,2013-01-11 09:15:00,
2013-01-11 01:20:00,26.6,26.1,30.20,NNE,22,0.0,0.0,98,0.00,FEW,,0.00,WeatherDisplay:10.37,2013-01-11 09:20:00,
2013-01-11 01:25:00,26.4,25.9,30.20,NNE,22,0.0,0.0,98,0.00,FEW,,0.00,WeatherDisplay:10.37,2013-01-11 09:25:00,
2013-01-11 01:30:00,26.4,25.9,30.20,NNE,22,0.0,0.0,98,0.00,FEW,,0.00,WeatherDisplay:10.37,2013-01-11 09:30:00,
2013-01-11 01:35:00,26.4,25.9,30.20,NNE,22,0.0,0.0,98,0.00,FEW,,0.00,WeatherDisplay:10.37,2013-01-11 09:35:00,
2013-01-11 01:40:00,26.4,25.9,30.20,NNE,22,0.0,0.0,98,0.00,FEW,,0.00,WeatherDisplay:10.37,2013-01-11 09:40:00,
2013-01-11 01:45:00,26.4,25.9,30.20,NNE,22,0.0,0.0,98,0.00,FEW,,0.00,WeatherDisplay:10.37,2013-01-11 09:45:00,
2013-01-11 01:50:00,26.4,25.9,30.20,NNE,22,0.0,0.0,98,0.00,FEW,,0.00,WeatherDisplay:10.37,2013-01-11 09:50:00,
2013-01-11 01:55:00,26.2,25.7,30.20,NNE,22,0.0,0.0,98,0.00,FEW,,0.00,WeatherDisplay:10.37,2013-01-11 09:55:00,
2013-01-11 02:00:00,26.2,25.7,30.20,NNE,22,1.1,1.1,98,0.00,FEW,,0.00,WeatherDisplay:10.37,2013-01-11 10:00:00,
2013-01-11 02:05:00,26.2,25.7,30.21,NNE,22,0.0,0.0,98,0.00,FEW,,0.00,WeatherDisplay:10.37,2013-01-11 10:05:00,
2013-01-11 02:10:00,26.2,25.7,30.21,NNE,22,1.1,1.1,98,0.00,FEW,,0.00,WeatherDisplay:10.37,2013-01-11 10:10:00,
2013-01-11 02:15:00,26.4,25.9,30.21,NNE,22,1.1,1.1,98,0.00,FEW,,0.00,WeatherDisplay:10.37,2013-01-11 10:15:00,
2013-01-11 02:20:00,26.4,25.9,30.21,NNE,22,0.0,0.0,98,0.00,FEW,,0.00,WeatherDisplay:10.37,2013-01-11 10:20:00,
2013-01-11 02:25:00,26.4,25.9,30.21,NNE,22,0.0,0.0,98,0.00,FEW,,0.00,WeatherDisplay:10.37,2013-01-11 10:25:00,
2013-01-11 02:30:00,26.6,26.1,30.21,NW,315,1.7,1.7,98,0.00,FEW,,0.00,WeatherDisplay:10.37,2013-01-11 10:30:00,
2013-01-11 02:35:00,26.6,26.1,30.21,NE,45,1.1,1.6,98,0.00,FEW,,0.00,WeatherDisplay:10.37,2013-01-11 10:35:00,
2013-01-11 02:40:00,26.6,26.1,30.21,NE,45,1.1,1.4,98,0.00,FEW,,0.00,WeatherDisplay:10.37,2013-01-11 10:40:00,
2013-01-11 02:45:00,26.6,26.1,30.21,North,360,1.1,1.1,98,0.00,FEW,,0.00,WeatherDisplay:10.37,2013-01-11 10:45:00,
2013-01-11 02:50:00,26.8,26.3,30.22,NNE,22,1.7,1.7,98,0.00,FEW,,0.00,WeatherDisplay:10.37,2013-01-11 10:50:00,
2013-01-11 02:55:00,26.8,26.3,30.22,NNE,22,1.1,1.1,98,0.00,FEW,,0.00,WeatherDisplay:10.37,2013-01-11 10:55:00,
2013-01-11 03:00:00,26.8,26.3,30.22,East,90,0.0,0.0,98,0.00,FEW,,0.00,WeatherDisplay:10.37,2013-01-11 11:00:00,
2013-01-11 03:05:00,26.6,26.1,30.22,ENE,68,0.0,0.0,98,0.00,FEW,,0.00,WeatherDisplay:10.37,2013-01-11 11:05:00,
2013-01-11 03:10:00,26.6,26.1,30.22,ENE,68,0.0,0.0,98,0.00,FEW,,0.00,WeatherDisplay:10.37,2013-01-11 11:10:00,
2013-01-11 03:15:00,26.4,25.9,30.23,ENE,68,0.0,0.0,98,0.00,FEW,,0.00,WeatherDisplay:10.37,2013-01-11 11:15:00,
2013-01-11 03:20:00,26.2,25.7,30.23,NNE,22,0.0,0.0,98,0.00,FEW,,0.00,WeatherDisplay:10.37,2013-01-11 11:20:00,
2013-01-11 03:25:00,26.2,25.7,30.23,NNE,22,0.0,0.0,98,0.00,FEW,,0.00,WeatherDisplay:10.37,2013-01-11 11:25:00,
2013-01-11 03:30:00,26.1,25.6,30.23,ESE,112,0.0,0.0,98,0.00,FEW,,0.00,WeatherDisplay:10.37,2013-01-11 11:30:00,
2013-01-11 03:35:00,25.9,25.4,30.23,North,360,0.0,0.0,98,0.00,FEW,,0.00,WeatherDisplay:10.37,2013-01-11 11:35:00,
2013-01-11 03:40:00,25.9,25.4,30.24,NNE,22,0.0,0.0,98,0.00,FEW,,0.00,WeatherDisplay:10.37,2013-01-11 11:40:00,
2013-01-11 03:45:00,25.9,25.4,30.24,NNE,22,0.0,0.0,98,0.00,FEW,,0.00,WeatherDisplay:10.37,2013-01-11 11:45:00,
2013-01-11 03:50:00,25.7,25.2,30.24,North,360,0.0,0.0,98,0.00,FEW,,0.00,WeatherDisplay:10.37,2013-01-11 11:50:00,
2013-01-11 03:55:00,25.7,25.2,30.24,NNE,22,0.0,0.0,98,0.00,FEW,,0.00,WeatherDisplay:10.37,2013-01-11 11:55:00,
2013-01-11 04:00:00,25.7,25.2,30.24,NNE,22,0.0,0.0,98,0.00,FEW,,0.00,WeatherDisplay:10.37,2013-01-11 12:00:00,
2013-01-11 04:05:00,25.3,24.8,30.24,NNE,22,0.0,0.0,98,0.00,FEW,,0.00,WeatherDisplay:10.37,2013-01-11 12:05:00,
2013-01-11 04:10:00,25.3,24.8,30.24,NNE,22,0.0,0.0,98,0.00,FEW,,0.00,WeatherDisplay:10.37,2013-01-11 12:10:00,
2013-01-11 04:15:00,25.3,24.8,30.24,NNE,22,0.0,0.0,98,0.00,FEW,,0.00,WeatherDisplay:10.37,2013-01-11 12:15:00,
2013-01-11 04:20:00,25.3,24.8,30.24,NNE,22,0.0,0.0,98,0.00,SKC,FEW,0.00,WeatherDisplay:10.37,2013-01-11 12:20:00,
2013-01-11 04:25:00,25.2,24.7,30.24,NNE,22,0.0,0.0,98,0.00,SKC,FEW,0.00,WeatherDisplay:10.37,2013-01-11 12:25:00,
2013-01-11 04:30:00,25.2,24.7,30.24,NNE,22,0.0,0.0,98,0.00,SKC,FEW,0.00,WeatherDisplay:10.37,2013-01-11 12:30:00,
2013-01-11 04:35:00,25.2,24.7,30.24,NNE,22,0.0,0.0,98,0.00,SKC,FEW,0.00,WeatherDisplay:10.37,2013-01-11 12:35:00,
2013-01-11 04:40:00,25.2,24.7,30.24,East,90,0.0,0.0,98,0.00,SKC,FEW,0.00,WeatherDisplay:10.37,2013-01-11 12:40:00,
2013-01-11 04:45:00,25.2,24.7,30.24,East,90,0.0,0.0,98,0.00,SKC,FEW,0.00,WeatherDisplay:10.37,2013-01-11 12:45:00,
2013-01-11 04:50:00,25.2,24.7,30.25,NE,45,0.0,0.0,98,0.00,SKC,FEW,0.00,WeatherDisplay:10.37,2013-01-11 12:50:00,
2013-01-11 04:55:00,25.2,24.7,30.25,NE,45,0.0,0.0,98,0.00,SKC,FEW,0.00,WeatherDisplay:10.37,2013-01-11 12:55:00,
2013-01-11 05:00:00,25.2,24.7,30.25,NNE,22,0.0,0.0,98,0.00,SKC,FEW,0.00,WeatherDisplay:10.37,2013-01-11 13:00:00,
2013-01-11 05:05:00,25.2,24.7,30.25,NNE,22,0.0,0.0,98,0.00,SKC,FEW,0.00,WeatherDisplay:10.37,2013-01-11 13:05:00,
2013-01-11 05:10:00,25.2,24.7,30.25,NNE,22,0.0,0.0,98,0.00,SKC,FEW,0.00,WeatherDisplay:10.37,2013-01-11 13:10:00,
2013-01-11 05:15:00,25.0,24.5,30.25,NNE,22,0.0,0.0,98,0.00,SKC,FEW,0.00,WeatherDisplay:10.37,2013-01-11 13:15:00,
2013-01-11 05:20:00,25.0,24.5,30.25,NNE,22,0.0,0.0,98,0.00,SKC,FEW,0.00,WeatherDisplay:10.37,2013-01-11 13:20:00,
2013-01-11 05:25:00,25.0,24.5,30.25,NNE,22,0.0,0.0,98,0.00,SKC,FEW,0.00,WeatherDisplay:10.37,2013-01-11 13:25:00,
2013-01-11 05:31:00,24.8,24.3,30.26,NNE,22,0.0,0.0,98,0.00,SKC,FEW,0.00,WeatherDisplay:10.37,2013-01-11 13:31:00,
2013-01-11 05:36:00,24.8,24.3,30.26,NNE,22,0.0,0.0,98,0.00,SKC,FEW,0.00,WeatherDisplay:10.37,2013-01-11 13:36:00,
2013-01-11 05:41:00,30.2,29.7,30.26,NNE,22,0.0,0.0,98,0.00,SKC,FEW,0.00,WeatherDisplay:10.37,2013-01-11 13:41:00,
2013-01-11 05:46:00,31.1,30.6,30.26,NNE,22,0.0,0.0,98,0.00,SKC,FEW,0.00,WeatherDisplay:10.37,2013-01-11 13:46:00,
2013-01-11 05:51:00,31.1,30.6,30.26,NNE,22,0.0,0.0,98,0.00,SKC,FEW,0.00,WeatherDisplay:10.37,2013-01-11 13:51:00,
2013-01-11 05:56:00,31.1,30.6,30.26,NNE,22,0.0,0.0,98,0.00,SKC,FEW,0.00,WeatherDisplay:10.37,2013-01-11 13:56:00,
2013-01-11 06:01:00,31.1,30.6,30.26,NE,45,0.0,0.0,98,0.00,SKC,FEW,0.00,WeatherDisplay:10.37,2013-01-11 14:01:00,
2013-01-11 06:06:00,31.1,30.6,30.26,NE,45,0.0,0.0,98,0.00,SKC,FEW,0.00,WeatherDisplay:10.37,2013-01-11 14:06:00,
2013-01-11 06:11:00,31.1,30.6,30.26,NE,45,0.0,0.0,98,0.00,SKC,FEW,0.00,WeatherDisplay:10.37,2013-01-11 14:11:00,
2013-01-11 06:16:00,31.1,30.6,30.27,ENE,68,1.7,1.7,98,0.00,SKC,FEW,0.00,WeatherDisplay:10.37,2013-01-11 14:16:00,
2013-01-11 06:21:00,31.1,30.6,30.27,NNE,22,0.0,0.0,98,0.00,SKC,FEW,0.00,WeatherDisplay:10.37,2013-01-11 14:21:00,
2013-01-11 06:26:00,31.1,30.6,30.27,NNE,22,0.0,0.0,98,0.00,SKC,FEW,0.00,WeatherDisplay:10.37,2013-01-11 14:26:00,
2013-01-11 06:31:00,31.1,30.6,30.27,NNE,22,0.0,0.0,98,0.00,SKC,FEW,0.00,WeatherDisplay:10.37,2013-01-11 14:31:00,
2013-01-11 06:36:00,31.1,30.6,30.27,NNE,22,0.0,0.0,98,0.00,SKC,FEW,0.00,WeatherDisplay:10.37,2013-01-11 14:36:00,
2013-01-11 06:41:00,31.1,30.6,30.28,NNE,22,0.0,0.0,98,0.00,SKC,FEW,0.00,WeatherDisplay:10.37,2013-01-11 14:41:00,
2013-01-11 06:46:00,31.1,30.6,30.28,NNE,22,0.0,0.0,98,0.00,SKC,FEW,0.00,WeatherDisplay:10.37,2013-01-11 14:46:00,
2013-01-11 06:51:00,31.1,30.6,30.28,NNE,22,0.0,0.0,98,0.00,SKC,FEW,0.00,WeatherDisplay:10.37,2013-01-11 14:51:00,
2013-01-11 06:56:00,31.1,30.6,30.28,NNE,22,0.0,0.0,98,0.00,SKC,FEW,0.00,WeatherDisplay:10.37,2013-01-11 14:56:00,
2013-01-11 07:01:00,31.1,30.6,30.28,NNE,22,0.0,0.0,98,0.00,SKC,FEW,0.00,WeatherDisplay:10.37,2013-01-11 15:01:00,
2013-01-11 07:06:00,30.9,30.4,30.29,NNE,22,0.0,0.0,98,0.00,SKC,FEW,0.00,WeatherDisplay:10.37,2013-01-11 15:06:00,
2013-01-11 07:11:00,30.9,30.4,30.29,NNE,22,0.0,0.0,98,0.00,SKC,FEW,0.00,WeatherDisplay:10.37,2013-01-11 15:11:00,
2013-01-11 07:16:00,30.7,30.2,30.29,NNE,22,0.0,0.0,98,0.00,SKC,FEW,0.00,WeatherDisplay:10.37,2013-01-11 15:16:00,
2013-01-11 07:21:00,30.7,30.2,30.29,NNE,22,0.0,0.0,98,0.00,SKC,FEW,0.00,WeatherDisplay:10.37,2013-01-11 15:21:00,
2013-01-11 07:26:00,30.6,30.1,30.29,NNE,22,0.0,0.0,98,0.00,SKC,FEW,0.00,WeatherDisplay:10.37,2013-01-11 15:26:00,
2013-01-11 07:31:00,30.2,29.7,30.30,NNE,22,1.1,1.1,98,0.00,SKC,FEW,0.00,WeatherDisplay:10.37,2013-01-11 15:31:00,
2013-01-11 07:36:00,29.5,29.0,30.30,NNE,22,1.1,1.1,98,0.00,SKC,FEW,0.00,WeatherDisplay:10.37,2013-01-11 15:36:00,
2013-01-11 07:41:00,27.3,26.8,30.31,NNE,22,1.1,1.1,98,0.00,SKC,FEW,0.00,WeatherDisplay:10.37,2013-01-11 15:41:00,
2013-01-11 07:46:00,25.5,25.0,30.31,NNE,22,0.0,0.0,98,0.00,SKC,FEW,0.00,WeatherDisplay:10.37,2013-01-11 15:46:00,
2013-01-11 07:51:00,24.8,24.3,30.31,NNE,22,0.0,0.0,98,0.00,SKC,FEW,0.00,WeatherDisplay:10.37,2013-01-11 15:51:00,
2013-01-11 07:56:00,24.4,23.9,30.31,NNE,22,0.0,0.0,98,0.00,SKC,FEW,0.00,WeatherDisplay:10.37,2013-01-11 15:56:00,
2013-01-11 08:01:00,24.3,23.8,30.31,NNE,22,0.0,0.0,98,0.00,SKC,FEW,0.00,WeatherDisplay:10.37,2013-01-11 16:01:00,
2013-01-11 08:06:00,24.3,23.8,30.31,NNE,22,1.1,0.0,98,0.00,SKC,FEW,0.00,WeatherDisplay:10.37,2013-01-11 16:06:00,
2013-01-11 08:11:00,24.3,23.8,30.31,NNE,22,1.7,1.7,98,0.00,SKC,FEW,0.00,WeatherDisplay:10.37,2013-01-11 16:11:00,
2013-01-11 08:16:00,24.3,23.8,30.32,NNE,22,1.1,1.1,98,0.00,SKC,FEW,0.00,WeatherDisplay:10.37,2013-01-11 16:16:00,
2013-01-11 08:21:00,24.3,23.8,30.32,NNE,22,0.0,0.0,98,0.00,FEW,,0.00,WeatherDisplay:10.37,2013-01-11 16:21:00,
2013-01-11 08:26:00,24.3,23.8,30.32,NNE,22,0.0,0.0,98,0.00,FEW,,0.00,WeatherDisplay:10.37,2013-01-11 16:26:00,
2013-01-11 08:31:00,24.3,23.8,30.33,NNE,22,0.0,0.0,98,0.00,FEW,,0.00,WeatherDisplay:10.37,2013-01-11 16:31:00,
2013-01-11 08:36:00,24.3,23.8,30.33,NNE,22,0.0,0.0,98,0.00,FEW,,0.00,WeatherDisplay:10.37,2013-01-11 16:36:00,
2013-01-11 08:41:00,24.3,23.8,30.33,NNE,22,0.0,0.0,98,0.00,FEW,,0.00,WeatherDisplay:10.37,2013-01-11 16:41:00,
2013-01-11 08:46:00,24.4,23.9,30.33,NNE,22,0.0,0.0,98,0.00,FEW,,0.00,WeatherDisplay:10.37,2013-01-11 16:46:00,
2013-01-11 08:51:00,24.6,24.1,30.33,NNE,22,0.0,0.0,98,0.00,FEW,,0.00,WeatherDisplay:10.37,2013-01-11 16:51:00,
2013-01-11 08:56:00,24.6,24.1,30.33,NNE,22,0.0,0.0,98,0.00,FEW,,0.00,WeatherDisplay:10.37,2013-01-11 16:56:00,
2013-01-11 09:01:00,24.8,24.3,30.33,NNE,22,0.0,0.0,98,0.00,FEW,,0.00,WeatherDisplay:10.37,2013-01-11 17:01:00,
2013-01-11 09:06:00,24.8,24.3,30.33,NNE,22,0.0,0.0,98,0.00,FEW,,0.00,WeatherDisplay:10.37,2013-01-11 17:06:00,
2013-01-11 09:11:00,25.0,24.5,30.33,NNE,22,0.0,0.0,98,0.00,FEW,,0.00,WeatherDisplay:10.37,2013-01-11 17:11:00,
2013-01-11 09:16:00,25.0,24.5,30.34,NNE,22,0.0,0.0,98,0.00,FEW,,0.00,WeatherDisplay:10.37,2013-01-11 17:16:00,
2013-01-11 09:21:00,25.3,24.8,30.34,NNE,22,0.0,0.0,98,0.00,FEW,,0.00,WeatherDisplay:10.37,2013-01-11 17:21:00,
2013-01-11 09:26:00,25.3,24.8,30.34,NNE,22,0.0,0.0,98,0.00,FEW,,0.00,WeatherDisplay:10.37,2013-01-11 17:26:00,
2013-01-11 09:31:00,25.5,25.0,30.34,NNE,22,0.0,0.0,98,0.00,FEW,,0.00,WeatherDisplay:10.37,2013-01-11 17:31:00,
2013-01-11 09:36:00,25.9,25.4,30.34,NNE,22,0.0,0.0,98,0.00,FEW,,0.00,WeatherDisplay:10.37,2013-01-11 17:36:00,
2013-01-11 09:41:00,26.1,25.6,30.34,NNE,22,0.0,0.0,98,0.00,FEW,,0.00,WeatherDisplay:10.37,2013-01-11 17:41:00,
2013-01-11 09:46:00,26.2,25.7,30.34,NNE,22,0.0,0.0,98,0.00,FEW,,0.00,WeatherDisplay:10.37,2013-01-11 17:46:00,
2013-01-11 09:51:00,26.6,26.1,30.34,NNE,22,0.0,0.0,98,0.00,FEW,,0.00,WeatherDisplay:10.37,2013-01-11 17:51:00,
2013-01-11 09:56:00,26.8,26.3,30.34,NNE,22,0.0,0.0,98,0.00,FEW,,0.00,WeatherDisplay:10.37,2013-01-11 17:56:00,
2013-01-11 10:01:00,27.0,26.5,30.34,ESE,112,0.0,0.0,98,0.00,FEW,,0.00,WeatherDisplay:10.37,2013-01-11 18:01:00,
2013-01-11 10:06:00,27.3,26.8,30.34,SSE,158,1.1,1.1,98,0.00,FEW,,0.00,WeatherDisplay:10.37,2013-01-11 18:06:00,
2013-01-11 10:11:00,27.5,27.0,30.34,South,180,1.1,1.1,98,0.00,FEW,,0.00,WeatherDisplay:10.37,2013-01-11 18:11:00,
2013-01-11 10:16:00,27.9,27.4,30.35,South,180,1.1,0.0,98,0.00,FEW,,0.00,WeatherDisplay:10.37,2013-01-11 18:16:00,
2013-01-11 10:21:00,28.2,27.7,30.35,SSW,202,1.1,0.0,98,0.00,FEW,,0.00,WeatherDisplay:10.37,2013-01-11 18:21:00,
2013-01-11 10:26:00,28.4,27.9,30.35,SSW,202,1.1,1.1,98,0.00,FEW,,0.00,WeatherDisplay:10.37,2013-01-11 18:26:00,
2013-01-11 10:31:00,28.6,28.1,30.35,SSW,202,0.0,0.0,98,0.00,FEW,,0.00,WeatherDisplay:10.37,2013-01-11 18:31:00,
2013-01-11 10:36:00,28.9,28.4,30.35,SSW,202,0.0,0.0,98,0.00,FEW,,0.00,WeatherDisplay:10.37,2013-01-11 18:36:00,
2013-01-11 10:41:00,29.1,28.6,30.35,SSW,202,2.3,2.5,98,0.00,FEW,,0.00,WeatherDisplay:10.37,2013-01-11 18:41:00,
2013-01-11 10:46:00,29.3,28.8,30.35,SSW,202,1.1,1.1,98,0.00,FEW,,0.00,WeatherDisplay:10.37,2013-01-11 18:46:00,
2013-01-11 10:51:00,29.7,29.2,30.34,South,180,1.7,1.7,98,0.00,FEW,,0.00,WeatherDisplay:10.37,2013-01-11 18:51:00,
2013-01-11 10:56:00,29.3,28.8,30.34,WNW,292,1.7,1.7,98,0.00,FEW,,0.00,WeatherDisplay:10.37,2013-01-11 18:56:00,
2013-01-11 11:01:00,30.4,29.9,30.34,WNW,292,1.7,1.7,98,0.00,FEW,,0.00,WeatherDisplay:10.37,2013-01-11 19:01:00,
2013-01-11 11:06:00,31.5,29.7,30.34,WNW,292,1.1,1.1,93,0.00,FEW,,0.00,WeatherDisplay:10.37,2013-01-11 19:06:00,
2013-01-11 11:11:00,32.2,29.6,30.34,NNW,338,1.7,1.7,90,0.00,FEW,,0.00,WeatherDisplay:10.37,2013-01-11 19:11:00,
2013-01-11 11:16:00,32.5,28.8,30.34,North,360,2.3,0.0,86,0.00,FEW,,0.00,WeatherDisplay:10.37,2013-01-11 19:16:00,
2013-01-11 11:21:00,33.1,28.2,30.34,WNW,292,0.0,0.0,82,0.00,FEW,,0.00,WeatherDisplay:10.37,2013-01-11 19:21:00,
2013-01-11 11:26:00,33.4,27.3,30.34,NW,315,2.3,2.3,78,0.00,FEW,,0.00,WeatherDisplay:10.37,2013-01-11 19:26:00,
2013-01-11 11:31:00,33.6,27.2,30.34,SSW,202,1.1,1.1,77,0.00,FEW,,0.00,WeatherDisplay:10.37,2013-01-11 19:31:00,
2013-01-11 11:36:00,34.0,26.6,30.34,SW,225,2.3,2.3,74,0.00,FEW,,0.00,WeatherDisplay:10.37,2013-01-11 19:36:00,
2013-01-11 11:41:00,34.2,26.4,30.34,SSW,202,1.7,1.7,73,0.00,FEW,,0.00,WeatherDisplay:10.37,2013-01-11 19:41:00,
2013-01-11 11:46:00,34.5,26.7,30.34,SE,135,1.1,1.1,73,0.00,FEW,,0.00,WeatherDisplay:10.37,2013-01-11 19:46:00,
2013-01-11 11:51:00,34.5,25.4,30.34,SSW,202,2.7,2.7,69,0.00,FEW,,0.00,WeatherDisplay:10.37,2013-01-11 19:51:00,
2013-01-11 11:56:00,34.7,25.2,30.34,South,180,2.3,2.3,68,0.00,FEW,,0.00,WeatherDisplay:10.37,2013-01-11 19:56:00,
2013-01-11 12:01:00,35.2,26.0,30.34,South,180,1.1,1.1,69,0.00,FEW,,0.00,WeatherDisplay:10.37,2013-01-11 20:01:00,
2013-01-11 12:06:00,35.4,25.2,30.33,SW,225,2.3,2.3,66,0.00,FEW,,0.00,WeatherDisplay:10.37,2013-01-11 20:06:00,
2013-01-11 12:11:00,36.0,25.7,30.33,South,180,2.7,2.7,66,0.00,FEW,,0.00,WeatherDisplay:10.37,2013-01-11 20:11:00,
2013-01-11 12:16:00,36.5,26.6,30.33,SSE,158,1.7,1.7,67,0.00,FEW,,0.00,WeatherDisplay:10.37,2013-01-11 20:16:00,
2013-01-11 12:21:00,37.2,27.2,30.33,ESE,112,2.3,2.3,67,0.00,FEW,,0.00,WeatherDisplay:10.37,2013-01-11 20:21:00,
2013-01-11 12:26:00,37.6,27.3,30.32,WSW,248,1.1,0.0,66,0.00,FEW,,0.00,WeatherDisplay:10.37,2013-01-11 20:26:00,
2013-01-11 12:31:00,38.1,27.0,30.32,SSE,158,2.3,2.3,64,0.00,FEW,,0.00,WeatherDisplay:10.37,2013-01-11 20:31:00,
2013-01-11 12:36:00,39.2,28.0,30.32,ESE,112,2.3,2.3,64,0.00,FEW,,0.00,WeatherDisplay:10.37,2013-01-11 20:36:00,
2013-01-11 12:41:00,40.6,29.7,30.32,WSW,248,0.0,0.0,65,0.00,FEW,,0.00,WeatherDisplay:10.37,2013-01-11 20:41:00,
2013-01-11 12:46:00,41.9,31.0,30.32,SE,135,2.3,2.3,65,0.00,FEW,,0.00,WeatherDisplay:10.37,2013-01-11 20:46:00,
2013-01-11 12:51:00,42.1,30.0,30.32,NNE,22,2.7,2.7,62,0.00,FEW,,0.00,WeatherDisplay:10.37,2013-01-11 20:51:00,
2013-01-11 12:56:00,41.9,29.8,30.32,NW,315,2.3,2.3,62,0.00,FEW,,0.00,WeatherDisplay:10.37,2013-01-11 20:56:00,
2013-01-11 13:01:00,41.9,30.6,30.32,NNE,22,2.2,2.2,64,0.00,FEW,,0.00,WeatherDisplay:10.37,2013-01-11 21:01:00,
2013-01-11 13:06:00,41.9,29.8,30.32,NNW,338,2.3,2.3,62,0.00,FEW,,0.00,WeatherDisplay:10.37,2013-01-11 21:06:00,
2013-01-11 13:11:00,42.1,29.2,30.32,North,360,2.7,2.7,60,0.00,FEW,,0.00,WeatherDisplay:10.37,2013-01-11 21:11:00,
2013-01-11 13:16:00,41.7,29.6,30.32,West,270,2.3,2.3,62,0.00,FEW,,0.00,WeatherDisplay:10.37,2013-01-11 21:16:00,
2013-01-11 13:21:00,41.9,30.2,30.32,South,180,1.1,0.0,63,0.00,FEW,,0.00,WeatherDisplay:10.37,2013-01-11 21:21:00,
2013-01-11 13:26:00,42.3,30.6,30.32,SW,225,1.1,1.1,63,0.00,FEW,,0.00,WeatherDisplay:10.37,2013-01-11 21:26:00,
2013-01-11 13:31:00,42.6,30.1,30.32,SW,225,2.3,2.3,61,0.00,FEW,,0.00,WeatherDisplay:10.37,2013-01-11 21:31:00,
2013-01-11 13:36:00,42.8,30.7,30.32,East,90,2.3,2.3,62,0.00,FEW,,0.00,WeatherDisplay:10.37,2013-01-11 21:36:00,
2013-01-11 13:41:00,42.8,30.3,30.32,South,180,2.7,2.7,61,0.00,FEW,,0.00,WeatherDisplay:10.37,2013-01-11 21:41:00,
2013-01-11 13:46:00,42.8,30.3,30.32,ESE,112,1.1,1.1,61,0.00,FEW,,0.00,WeatherDisplay:10.37,2013-01-11 21:46:00,
2013-01-11 13:51:00,42.6,30.5,30.32,ESE,112,2.3,2.3,62,0.00,FEW,,0.00,WeatherDisplay:10.37,2013-01-11 21:51:00,
2013-01-11 13:56:00,42.8,30.3,30.32,SW,225,3.5,3.5,61,0.00,FEW,,0.00,WeatherDisplay:10.37,2013-01-11 21:56:00,
2013-01-11 14:01:00,42.4,30.3,30.32,ENE,68,2.3,2.3,62,0.00,FEW,,0.00,WeatherDisplay:10.37,2013-01-11 22:01:00,
2013-01-11 14:06:00,42.6,30.5,30.32,SSW,202,2.2,2.2,62,0.00,FEW,,0.00,WeatherDisplay:10.37,2013-01-11 22:06:00,
2013-01-11 14:11:00,42.4,29.9,30.32,West,270,4.6,4.6,61,0.00,FEW,,0.00,WeatherDisplay:10.37,2013-01-11 22:11:00,
2013-01-11 14:16:00,42.1,30.8,30.33,SSW,202,2.3,2.3,64,0.00,FEW,,0.00,WeatherDisplay:10.37,2013-01-11 22:16:00,
2013-01-11 14:21:00,41.9,30.2,30.33,ENE,68,2.3,2.3,63,0.00,FEW,,0.00,WeatherDisplay:10.37,2013-01-11 22:21:00,
2013-01-11 14:26:00,41.7,30.4,30.33,NW,315,3.2,3.2,64,0.00,FEW,,0.00,WeatherDisplay:10.37,2013-01-11 22:26:00,
2013-01-11 14:31:00,41.7,31.5,30.33,SE,135,2.3,2.3,67,0.00,FEW,,0.00,WeatherDisplay:10.37,2013-01-11 22:31:00,
2013-01-11 14:36:00,41.7,31.9,30.33,SSW,202,3.5,3.5,68,0.00,FEW,,0.00,WeatherDisplay:10.37,2013-01-11 22:36:00,
2013-01-11 14:41:00,40.3,31.3,30.33,WSW,248,2.3,2.3,70,0.00,FEW,,0.00,WeatherDisplay:10.37,2013-01-11 22:41:00,
2013-01-11 14:46:00,39.4,33.7,30.33,SE,135,2.7,2.7,80,0.00,FEW,,0.00,WeatherDisplay:10.37,2013-01-11 22:46:00,
2013-01-11 14:51:00,38.8,31.6,30.33,South,180,2.3,2.3,75,0.00,FEW,,0.00,WeatherDisplay:10.37,2013-01-11 22:51:00,
2013-01-11 14:56:00,39.4,32.1,30.33,South,180,2.2,2.2,75,0.00,FEW,,0.00,WeatherDisplay:10.37,2013-01-11 22:56:00,
2013-01-11 15:01:00,39.4,31.8,30.33,West,270,1.1,1.1,74,0.00,FEW,,0.00,WeatherDisplay:10.37,2013-01-11 23:01:00,
2013-01-11 15:06:00,39.2,31.9,30.34,ESE,112,2.3,2.3,75,0.00,FEW,,0.00,WeatherDisplay:10.37,2013-01-11 23:06:00,
2013-01-11 15:11:00,38.1,36.3,30.34,ESE,112,2.3,2.3,93,0.00,FEW,,0.00,WeatherDisplay:10.37,2013-01-11 23:11:00,
2013-01-11 15:16:00,37.8,36.8,30.34,East,90,2.3,2.3,96,0.00,FEW,,0.00,WeatherDisplay:10.37,2013-01-11 23:16:00,
2013-01-11 15:21:00,37.2,36.2,30.34,WSW,248,1.7,1.7,96,0.00,FEW,,0.00,WeatherDisplay:10.37,2013-01-11 23:21:00,
2013-01-11 15:26:00,36.9,35.9,30.33,East,90,1.1,0.0,96,0.00,FEW,,0.00,WeatherDisplay:10.37,2013-01-11 23:26:00,
2013-01-11 15:31:00,36.3,35.0,30.33,SE,135,1.7,1.7,95,0.00,FEW,,0.00,WeatherDisplay:10.37,2013-01-11 23:31:00,
2013-01-11 15:36:00,36.0,35.2,30.34,SE,135,1.1,0.0,97,0.00,FEW,,0.00,WeatherDisplay:10.37,2013-01-11 23:36:00,
2013-01-11 15:41:00,35.6,34.8,30.33,SSW,202,0.0,0.0,97,0.00,FEW,,0.00,WeatherDisplay:10.37,2013-01-11 23:41:00,
2013-01-11 15:46:00,35.4,34.4,30.33,South,180,0.0,0.0,96,0.00,FEW,,0.00,WeatherDisplay:10.37,2013-01-11 23:46:00,
2013-01-11 15:51:00,35.1,34.3,30.34,NNE,22,0.0,0.0,97,0.00,FEW,,0.00,WeatherDisplay:10.37,2013-01-11 23:51:00,
2013-01-11 15:56:00,34.7,33.9,30.34,SSE,158,0.0,0.0,97,0.00,FEW,,0.00,WeatherDisplay:10.37,2013-01-11 23:56:00,
2013-01-11 16:01:00,34.3,33.5,30.34,SE,135,1.7,1.7,97,0.00,FEW,,0.00,WeatherDisplay:10.37,2013-01-12 00:01:00,
2013-01-11 16:06:00,34.2,33.4,30.34,NNE,22,0.0,0.0,97,0.00,FEW,,0.00,WeatherDisplay:10.37,2013-01-12 00:06:00,
2013-01-11 16:11:00,33.8,33.0,30.34,NE,45,0.0,0.0,97,0.00,FEW,,0.00,WeatherDisplay:10.37,2013-01-12 00:11:00,
2013-01-11 16:16:00,33.6,32.8,30.34,NE,45,0.0,0.0,97,0.00,FEW,,0.00,WeatherDisplay:10.37,2013-01-12 00:16:00,
2013-01-11 16:21:00,33.3,32.3,30.34,NE,45,0.0,0.0,96,0.00,BKN,FEW,0.00,WeatherDisplay:10.37,2013-01-12 00:21:00,
2013-01-11 16:26:00,32.7,31.7,30.34,NE,45,0.0,0.0,96,0.00,BKN,FEW,0.00,WeatherDisplay:10.37,2013-01-12 00:26:00,
2013-01-11 16:31:00,32.4,31.4,30.34,NE,45,0.0,0.0,96,0.00,BKN,FEW,0.00,WeatherDisplay:10.37,2013-01-12 00:31:00,
2013-01-11 16:36:00,32.0,31.0,30.34,NE,45,0.0,0.0,96,0.00,BKN,FEW,0.00,WeatherDisplay:10.37,2013-01-12 00:36:00,
2013-01-11 16:41:00,31.6,30.6,30.34,NE,45,0.0,0.0,96,0.00,BKN,FEW,0.00,WeatherDisplay:10.37,2013-01-12 00:41:00,
2013-01-11 16:46:00,31.5,30.5,30.34,NE,45,0.0,0.0,96,0.00,BKN,FEW,0.00,WeatherDisplay:10.37,2013-01-12 00:46:00,
2013-01-11 16:51:00,31.1,30.1,30.34,NE,45,0.0,0.0,96,0.00,BKN,FEW,0.00,WeatherDisplay:10.37,2013-01-12 00:51:00,
2013-01-11 16:56:00,30.9,29.6,30.34,NE,45,0.0,0.0,95,0.00,BKN,FEW,0.00,WeatherDisplay:10.37,2013-01-12 00:56:00,
2013-01-11 17:01:00,30.6,29.3,30.34,NE,45,0.0,0.0,95,0.00,BKN,FEW,0.00,WeatherDisplay:10.37,2013-01-12 01:01:00,
2013-01-11 17:06:00,30.2,28.9,30.34,NNE,22,0.0,0.0,95,0.00,BKN,FEW,0.00,WeatherDisplay:10.37,2013-01-12 01:06:00,
2013-01-11 17:11:00,30.0,28.7,30.34,NNE,22,0.0,0.0,95,0.00,BKN,FEW,0.00,WeatherDisplay:10.37,2013-01-12 01:11:00,
2013-01-11 17:16:00,29.7,28.2,30.34,NNE,22,0.0,0.0,94,0.00,BKN,FEW,0.00,WeatherDisplay:10.37,2013-01-12 01:16:00,
2013-01-11 17:21:00,29.5,27.7,30.34,NNE,22,0.0,0.0,93,0.00,BKN,FEW,0.00,WeatherDisplay:10.37,2013-01-12 01:21:00,
2013-01-11 17:26:00,29.5,27.7,30.34,NNE,22,0.0,0.0,93,0.00,BKN,FEW,0.00,WeatherDisplay:10.37,2013-01-12 01:26:00,
2013-01-11 17:31:00,29.3,27.3,30.34,NNE,22,0.0,0.0,92,0.00,BKN,FEW,0.00,WeatherDisplay:10.37,2013-01-12 01:31:00,
2013-01-11 17:36:00,28.9,26.9,30.34,NNE,22,0.0,0.0,92,0.00,BKN,FEW,0.00,WeatherDisplay:10.37,2013-01-12 01:36:00,
2013-01-11 17:41:00,28.9,26.9,30.34,NNE,22,0.0,0.0,92,0.00,BKN,FEW,0.00,WeatherDisplay:10.37,2013-01-12 01:41:00,
2013-01-11 17:46:00,28.8,26.8,30.34,NNE,22,0.0,0.0,92,0.00,BKN,FEW,0.00,WeatherDisplay:10.37,2013-01-12 01:46:00,
2013-01-11 17:51:00,28.8,26.8,30.34,NNE,22,0.0,0.0,92,0.00,BKN,FEW,0.00,WeatherDisplay:10.37,2013-01-12 01:51:00,
2013-01-11 17:56:00,28.6,26.6,30.34,NNE,22,0.0,0.0,92,0.00,BKN,FEW,0.00,WeatherDisplay:10.37,2013-01-12 01:56:00,
2013-01-11 18:01:00,28.6,26.6,30.34,NNE,22,0.0,0.0,92,0.00,BKN,FEW,0.00,WeatherDisplay:10.37,2013-01-12 02:01:00,
2013-01-11 18:06:00,28.6,26.6,30.35,NNE,22,0.0,0.0,92,0.00,BKN,FEW,0.00,WeatherDisplay:10.37,2013-01-12 02:06:00,
2013-01-11 18:11:00,28.6,26.6,30.35,NNE,22,0.0,0.0,92,0.00,BKN,FEW,0.00,WeatherDisplay:10.37,2013-01-12 02:11:00,
2013-01-11 18:16:00,28.4,26.6,30.35,NNE,22,0.0,0.0,93,0.00,BKN,FEW,0.00,WeatherDisplay:10.37,2013-01-12 02:16:00,
2013-01-11 18:21:00,28.4,26.6,30.35,NNE,22,0.0,0.0,93,0.00,BKN,FEW,0.00,WeatherDisplay:10.37,2013-01-12 02:21:00,
2013-01-11 18:26:00,28.4,26.6,30.34,NNE,22,0.0,0.0,93,0.00,BKN,FEW,0.00,WeatherDisplay:10.37,2013-01-12 02:26:00,
2013-01-11 18:31:00,28.4,26.9,30.34,NNE,22,0.0,0.0,94,0.00,BKN,FEW,0.00,WeatherDisplay:10.37,2013-01-12 02:31:00,
2013-01-11 18:36:00,28.4,26.9,30.34,NNE,22,0.0,0.0,94,0.00,BKN,FEW,0.00,WeatherDisplay:10.37,2013-01-12 02:36:00,
2013-01-11 18:41:00,28.4,26.9,30.34,NNE,22,0.0,0.0,94,0.00,BKN,FEW,0.00,WeatherDisplay:10.37,2013-01-12 02:41:00,
2013-01-11 18:46:00,28.2,27.0,30.34,NNE,22,0.0,0.0,95,0.00,BKN,FEW,0.00,WeatherDisplay:10.37,2013-01-12 02:46:00,
2013-01-11 18:51:00,28.2,27.2,30.33,NE,45,0.0,0.0,96,0.00,BKN,FEW,0.00,WeatherDisplay:10.37,2013-01-12 02:51:00,
2013-01-11 18:57:00,28.2,27.5,30.33,North,360,0.0,0.0,97,0.00,BKN,FEW,0.00,WeatherDisplay:10.37,2013-01-12 02:57:00,
2013-01-11 19:02:00,28.2,27.7,30.33,NNE,22,0.0,0.0,98,0.00,BKN,FEW,0.00,WeatherDisplay:10.37,2013-01-12 03:02:00,
2013-01-11 19:07:00,28.2,27.7,30.33,NE,45,0.0,0.0,98,0.00,BKN,FEW,0.00,WeatherDisplay:10.37,2013-01-12 03:07:00,
2013-01-11 19:12:00,28.2,27.7,30.33,North,360,0.0,0.0,98,0.00,BKN,FEW,0.00,WeatherDisplay:10.37,2013-01-12 03:12:00,
2013-01-11 19:17:00,28.2,27.7,30.34,North,360,0.0,0.0,98,0.00,OVC,FEW,0.00,WeatherDisplay:10.37,2013-01-12 03:17:00,
2013-01-11 19:22:00,28.2,27.7,30.34,North,360,0.0,0.0,98,0.00,OVC,FEW,0.00,WeatherDisplay:10.37,2013-01-12 03:22:00,
2013-01-11 19:27:00,28.2,27.5,30.34,North,360,0.0,0.0,97,0.00,OVC,FEW,0.00,WeatherDisplay:10.37,2013-01-12 03:27:00,
2013-01-11 19:32:00,28.2,27.2,30.34,North,360,0.0,0.0,96,0.00,OVC,FEW,0.00,WeatherDisplay:10.37,2013-01-12 03:32:00,
2013-01-11 19:37:00,28.2,27.2,30.34,NNE,22,0.0,0.0,96,0.00,OVC,FEW,0.00,WeatherDisplay:10.37,2013-01-12 03:37:00,
2013-01-11 19:42:00,28.2,27.2,30.33,NNE,22,0.0,0.0,96,0.00,OVC,FEW,0.00,WeatherDisplay:10.37,2013-01-12 03:42:00,
2013-01-11 19:47:00,28.2,27.0,30.33,North,360,1.1,1.1,95,0.00,OVC,FEW,0.00,WeatherDisplay:10.37,2013-01-12 03:47:00,
2013-01-11 19:52:00,28.2,27.0,30.34,North,360,0.0,0.0,95,0.00,OVC,FEW,0.00,WeatherDisplay:10.37,2013-01-12 03:52:00,
2013-01-11 19:57:00,28.2,27.0,30.34,North,360,0.0,0.0,95,0.00,OVC,FEW,0.00,WeatherDisplay:10.37,2013-01-12 03:57:00,
2013-01-11 20:02:00,28.2,27.0,30.33,North,360,0.0,0.0,95,0.00,OVC,FEW,0.00,WeatherDisplay:10.37,2013-01-12 04:02:00,
2013-01-11 20:07:00,28.2,27.0,30.33,NNE,22,1.1,1.1,95,0.00,OVC,FEW,0.00,WeatherDisplay:10.37,2013-01-12 04:07:00,
2013-01-11 20:12:00,28.2,26.7,30.33,NW,315,0.0,0.0,94,0.00,OVC,FEW,0.00,WeatherDisplay:10.37,2013-01-12 04:12:00,
2013-01-11 20:17:00,28.2,26.7,30.34,North,360,0.0,0.0,94,0.00,BKN,FEW,0.00,WeatherDisplay:10.37,2013-01-12 04:17:00,
2013-01-11 20:22:00,28.2,26.7,30.34,North,360,0.0,0.0,94,0.00,BKN,FEW,0.00,WeatherDisplay:10.37,2013-01-12 04:22:00,
2013-01-11 20:27:00,28.0,26.5,30.34,North,360,0.0,0.0,94,0.00,BKN,FEW,0.00,WeatherDisplay:10.37,2013-01-12 04:27:00,
2013-01-11 20:32:00,28.0,26.5,30.34,North,360,0.0,0.0,94,0.00,BKN,FEW,0.00,WeatherDisplay:10.37,2013-01-12 04:32:00,
2013-01-11 20:37:00,28.0,26.5,30.34,North,360,0.0,0.0,94,0.00,BKN,FEW,0.00,WeatherDisplay:10.37,2013-01-12 04:37:00,
2013-01-11 20:42:00,27.9,26.4,30.34,NNE,22,0.0,0.0,94,0.00,BKN,FEW,0.00,WeatherDisplay:10.37,2013-01-12 04:42:00,
2013-01-11 20:47:00,27.9,26.4,30.34,NW,315,1.1,1.1,94,0.00,BKN,FEW,0.00,WeatherDisplay:10.37,2013-01-12 04:47:00,
2013-01-11 20:52:00,27.9,26.4,30.34,North,360,0.0,0.0,94,0.00,BKN,FEW,0.00,WeatherDisplay:10.37,2013-01-12 04:52:00,
2013-01-11 20:57:00,27.9,26.4,30.34,North,360,0.0,0.0,94,0.00,BKN,FEW,0.00,WeatherDisplay:10.37,2013-01-12 04:57:00,
2013-01-11 21:00:00,27.9,26.4,30.34,North,360,0.0,0.0,94,0.00,BKN,FEW,0.00,WeatherDisplay:10.37,2013-01-12 05:00:00,
2013-01-11 21:01:00,27.9,26.4,30.34,North,360,0.0,0.0,94,0.00,BKN,FEW,0.00,WeatherDisplay:10.37,2013-01-12 05:01:00,
2013-01-11 21:02:00,27.9,26.4,30.35,North,360,0.0,0.0,94,0.00,BKN,FEW,0.00,WeatherDisplay:10.37,2013-01-12 05:02:00,
2013-01-11 21:04:00,27.9,26.4,30.35,North,360,0.0,0.0,94,0.00,BKN,FEW,0.00,WeatherDisplay:10.37,2013-01-12 05:04:00,
2013-01-11 21:09:00,27.9,26.4,30.34,North,360,0.0,0.0,94,0.00,BKN,FEW,0.00,WeatherDisplay:10.37,2013-01-12 05:09:00,
2013-01-11 21:14:00,27.9,26.4,30.34,North,360,0.0,0.0,94,0.00,BKN,FEW,0.00,WeatherDisplay:10.37,2013-01-12 05:14:00,
2013-01-11 21:19:00,27.7,26.2,30.34,North,360,0.0,0.0,94,0.00,BKN,FEW,0.00,WeatherDisplay:10.37,2013-01-12 05:19:00,
2013-01-11 21:24:00,27.7,26.2,30.34,North,360,0.0,0.0,94,0.00,BKN,FEW,0.00,WeatherDisplay:10.37,2013-01-12 05:24:00,
2013-01-11 21:29:00,27.7,26.2,30.35,NNE,22,0.0,0.0,94,0.00,BKN,FEW,0.00,WeatherDisplay:10.37,2013-01-12 05:29:00,
2013-01-11 21:35:00,27.7,26.2,30.35,NNE,22,0.0,0.0,94,0.00,BKN,FEW,0.00,WeatherDisplay:10.37,2013-01-12 05:35:00,
2013-01-11 21:40:00,27.5,26.0,30.35,NNE,22,0.0,0.0,94,0.00,BKN,FEW,0.00,WeatherDisplay:10.37,2013-01-12 05:40:00,
2013-01-11 21:45:00,27.5,26.0,30.35,NNE,22,0.0,0.0,94,0.00,BKN,FEW,0.00,WeatherDisplay:10.37,2013-01-12 05:45:00,
2013-01-11 21:50:00,27.3,25.8,30.35,NNE,22,0.0,0.0,94,0.00,BKN,FEW,0.00,WeatherDisplay:10.37,2013-01-12 05:50:00,
2013-01-11 21:55:00,27.3,25.8,30.35,North,360,0.0,0.0,94,0.00,BKN,FEW,0.00,WeatherDisplay:10.37,2013-01-12 05:55:00,
2013-01-11 22:00:00,27.3,25.8,30.35,North,360,0.0,0.0,94,0.00,BKN,FEW,0.00,WeatherDisplay:10.37,2013-01-12 06:00:00,
2013-01-11 22:05:00,27.3,26.1,30.35,NNE,22,0.0,0.0,95,0.00,BKN,FEW,0.00,WeatherDisplay:10.37,2013-01-12 06:05:00,
2013-01-11 22:10:00,27.3,26.1,30.34,NNE,22,0.0,0.0,95,0.00,BKN,FEW,0.00,WeatherDisplay:10.37,2013-01-12 06:10:00,
2013-01-11 22:15:00,27.3,26.1,30.34,NNE,22,0.0,0.0,95,0.00,BKN,FEW,0.00,WeatherDisplay:10.37,2013-01-12 06:15:00,
2013-01-11 22:20:00,27.1,25.9,30.34,NNE,22,0.0,0.0,95,0.00,BKN,FEW,0.00,WeatherDisplay:10.37,2013-01-12 06:20:00,
2013-01-11 22:25:00,27.1,25.9,30.34,NNE,22,0.0,0.0,95,0.00,BKN,FEW,0.00,WeatherDisplay:10.37,2013-01-12 06:25:00,
2013-01-11 22:30:00,27.1,25.9,30.34,NNE,22,1.1,1.1,95,0.00,BKN,FEW,0.00,WeatherDisplay:10.37,2013-01-12 06:30:00,
2013-01-11 22:35:00,27.1,25.9,30.34,NNE,22,1.7,1.7,95,0.00,BKN,FEW,0.00,WeatherDisplay:10.37,2013-01-12 06:35:00,
2013-01-11 22:40:00,27.1,25.9,30.34,NNE,22,1.1,1.1,95,0.00,BKN,FEW,0.00,WeatherDisplay:10.37,2013-01-12 06:40:00,
2013-01-11 22:45:00,27.1,25.9,30.34,NNE,22,0.0,0.0,95,0.00,BKN,FEW,0.00,WeatherDisplay:10.37,2013-01-12 06:45:00,
2013-01-11 22:50:00,27.1,26.1,30.34,NNE,22,0.0,0.0,96,0.00,BKN,FEW,0.00,WeatherDisplay:10.37,2013-01-12 06:50:00,
2013-01-11 22:55:00,27.1,26.1,30.34,NNE,22,0.0,0.0,96,0.00,BKN,FEW,0.00,WeatherDisplay:10.37,2013-01-12 06:55:00,
2013-01-11 23:00:00,27.1,26.1,30.34,NNW,338,1.1,1.1,96,0.00,BKN,FEW,0.00,WeatherDisplay:10.37,2013-01-12 07:00:00,
2013-01-11 23:05:00,27.1,26.1,30.35,NNW,338,0.0,0.0,96,0.00,BKN,FEW,0.00,WeatherDisplay:10.37,2013-01-12 07:05:00,
2013-01-11 23:10:00,27.1,26.1,30.35,NNE,22,0.0,0.0,96,0.00,BKN,FEW,0.00,WeatherDisplay:10.37,2013-01-12 07:10:00,
2013-01-11 23:15:00,27.1,26.1,30.35,NNE,22,0.0,0.0,96,0.00,BKN,FEW,0.00,WeatherDisplay:10.37,2013-01-12 07:15:00,
2013-01-11 23:20:00,27.1,26.1,30.35,NNE,22,0.0,0.0,96,0.00,SCT,FEW,0.00,WeatherDisplay:10.37,2013-01-12 07:20:00,
2013-01-11 23:25:00,27.1,26.1,30.35,NNE,22,0.0,0.0,96,0.00,SCT,FEW,0.00,WeatherDisplay:10.37,2013-01-12 07:25:00,
2013-01-11 23:30:00,27.0,26.0,30.35,NNE,22,1.1,1.1,96,0.00,SCT,FEW,0.00,WeatherDisplay:10.37,2013-01-12 07:30:00,
2013-01-11 23:35:00,27.0,25.8,30.35,NNE,22,1.7,1.7,95,0.00,SCT,FEW,0.00,WeatherDisplay:10.37,2013-01-12 07:35:00,
2013-01-11 23:40:00,27.0,25.8,30.35,NNE,22,1.1,1.1,95,0.00,SCT,FEW,0.00,WeatherDisplay:10.37,2013-01-12 07:40:00,
2013-01-11 23:45:00,27.0,25.8,30.35,NNE,22,1.1,1.1,95,0.00,SCT,FEW,0.00,WeatherDisplay:10.37,2013-01-12 07:45:00,
2013-01-11 23:50:00,27.0,25.8,30.36,NNE,22,1.1,1.3,95,0.00,SCT,FEW,0.00,WeatherDisplay:10.37,2013-01-12 07:50:00,
2013-01-11 23:55:00,27.0,25.8,30.36,NNE,22,1.1,1.1,95,0.00,SCT,FEW,0.00,WeatherDisplay:10.37,2013-01-12 07:55:00,